Torm Horizon — OYNM2 — position and weather

sailwx.info

Track history (hours):
 
Tides and Currents Weather Stations Pressure Air Temp Water Temp Dewpoint Dewpoint Depression Visibility Wind Speed Wind Dir Waves Ship Positions

Torm Horizon

Last reported at 2016-May-27 23:33 UTC. Time now 2016-May-28 09:47 UTC.
Position N 36°02' W 026°15'.

Length 183 m; draft 11.5 m.

Type: Ship. MMSI: 220566000.

Date/timePositionNaut miles runAvg speedWind from/ knotsBaromVisibWave heightAir tempDewpointWater temp
2016-May-27 23:33N 36°02' W 026°15'1212.5
2016-May-27 22:34N 36°04' W 025°60'1312.6
2016-May-27 21:33N 36°06' W 025°44'1312.7
2016-May-27 20:33N 36°08' W 025°29'1312.8
2016-May-27 19:33N 36°09' W 025°13'1312.9
2016-May-27 18:33N 36°11' W 024°57'1313.0
2016-May-27 17:34N 36°13' W 024°41'1313.1
2016-May-27 16:33N 36°15' W 024°25'1313.0
2016-May-27 15:33N 36°16' W 024°09'1312.6
2016-May-27 14:33N 36°18' W 023°53'  
2016-May-24 11:34N 35°59' W 005°31'1110.4
2016-May-24 10:33N 36°07' W 005°22'1 0.2
2016-May-24 08:10N 36°07' W 005°22'0 0.1
2016-May-24 07:33N 36°08' W 005°22'0 0.0
2016-May-24 06:21N 36°08' W 005°22'0 0.1
2016-May-24 05:33N 36°08' W 005°22'0 0.1
2016-May-24 04:33N 36°08' W 005°22'3 3.5
2016-May-24 03:33N 36°05' W 005°20'2 2.0
2016-May-24 02:33N 36°05' W 005°17'4 1.6
2016-May-24 00:10N 36°06' W 005°12'0 0.8
2016-May-23 23:33N 36°06' W 005°12'1 0.9
2016-May-23 22:24N 36°06' W 005°11'33712.9
2016-May-22 20:17N 37°00' E 001°43'912.3
2016-May-22 19:33N 37°02' E 001°54'1513.0
2016-May-22 18:25N 37°06' E 002°12'1113.0
2016-May-22 17:33N 37°09' E 002°25'1313.0
2016-May-22 16:33N 37°11' E 002°41'1313.2
2016-May-22 15:33N 37°15' E 002°57'1313.1
2016-May-22 14:33N 37°18' E 003°13'1312.4
2016-May-22 13:31N 37°19' E 003°29'1211.9
2016-May-22 12:29N 37°20' E 003°45'1111.8
2016-May-22 11:34N 37°21' E 003°58'1212.1
2016-May-22 10:33N 37°22' E 004°13'1211.9
2016-May-22 09:33N 37°24' E 004°28'1713.9
2016-May-22 08:19N 37°25' E 004°50'1114.4
2016-May-22 07:33N 37°26' E 005°04'1713.2
2016-May-22 06:17N 37°28' E 005°25'1113.1
2016-May-22 05:26N 37°29' E 005°39'1613.2
2016-May-22 04:14N 37°31' E 005°59'14113.2
2016-May-21 17:33N 37°44' E 008°55'1313.5
2016-May-21 16:33N 37°43' E 009°12'1413.5
2016-May-21 15:32N 37°41' E 009°30'22211.7
2016-May-20 20:33N 36°31' E 013°54'1111.5
2016-May-20 19:33N 36°27' E 014°07'1111.4
2016-May-20 18:33N 36°23' E 014°20'1111.5
2016-May-20 17:34N 36°19' E 014°34'1111.3
2016-May-20 16:33N 36°16' E 014°47'  
Track history (hours):
 
Tides and Currents Weather Stations Pressure Air Temp Water Temp Dewpoint Dewpoint Depression Visibility Wind Speed Wind Dir Waves Ship Positions

Torm Horizon

Last reported at 2016-May-27 23:33 UTC. Time now 2016-May-28 09:47 UTC.
Position N 36°02' W 026°15'.

Length 183 m; draft 11.5 m.

Type: Ship. MMSI: 220566000.

Date/timePositionNaut miles runAvg speedWind from/ knotsBaromVisibWave heightAir tempDewpointWater temp
2016-May-27 23:33N 36°02' W 026°15'1212.5
2016-May-27 22:34N 36°04' W 025°60'1312.6
2016-May-27 21:33N 36°06' W 025°44'1312.7
2016-May-27 20:33N 36°08' W 025°29'1312.8
2016-May-27 19:33N 36°09' W 025°13'1312.9
2016-May-27 18:33N 36°11' W 024°57'1313.0
2016-May-27 17:34N 36°13' W 024°41'1313.1
2016-May-27 16:33N 36°15' W 024°25'1313.0
2016-May-27 15:33N 36°16' W 024°09'1312.6
2016-May-27 14:33N 36°18' W 023°53'  
2016-May-24 11:34N 35°59' W 005°31'1110.4
2016-May-24 10:33N 36°07' W 005°22'1 0.2
2016-May-24 08:10N 36°07' W 005°22'0 0.1
2016-May-24 07:33N 36°08' W 005°22'0 0.0
2016-May-24 06:21N 36°08' W 005°22'0 0.1
2016-May-24 05:33N 36°08' W 005°22'0 0.1
2016-May-24 04:33N 36°08' W 005°22'3 3.5
2016-May-24 03:33N 36°05' W 005°20'2 2.0
2016-May-24 02:33N 36°05' W 005°17'4 1.6
2016-May-24 00:10N 36°06' W 005°12'0 0.8
2016-May-23 23:33N 36°06' W 005°12'1 0.9
2016-May-23 22:24N 36°06' W 005°11'33712.9
2016-May-22 20:17N 37°00' E 001°43'912.3
2016-May-22 19:33N 37°02' E 001°54'1513.0
2016-May-22 18:25N 37°06' E 002°12'1113.0
2016-May-22 17:33N 37°09' E 002°25'1313.0
2016-May-22 16:33N 37°11' E 002°41'1313.2
2016-May-22 15:33N 37°15' E 002°57'1313.1
2016-May-22 14:33N 37°18' E 003°13'1312.4
2016-May-22 13:31N 37°19' E 003°29'1211.9
2016-May-22 12:29N 37°20' E 003°45'1111.8
2016-May-22 11:34N 37°21' E 003°58'1212.1
2016-May-22 10:33N 37°22' E 004°13'1211.9
2016-May-22 09:33N 37°24' E 004°28'1713.9
2016-May-22 08:19N 37°25' E 004°50'1114.4
2016-May-22 07:33N 37°26' E 005°04'1713.2
2016-May-22 06:17N 37°28' E 005°25'1113.1
2016-May-22 05:26N 37°29' E 005°39'1613.2
2016-May-22 04:14N 37°31' E 005°59'14113.2
2016-May-21 17:33N 37°44' E 008°55'1313.5
2016-May-21 16:33N 37°43' E 009°12'1413.5
2016-May-21 15:32N 37°41' E 009°30'22211.7
2016-May-20 20:33N 36°31' E 013°54'1111.5
2016-May-20 19:33N 36°27' E 014°07'1111.4
2016-May-20 18:33N 36°23' E 014°20'1111.5
2016-May-20 17:34N 36°19' E 014°34'1111.3
2016-May-20 16:33N 36°16' E 014°47'  

Dump ship's entire track history